Terminal Aerodrome Forecast
Issued by NWS Austin/San Antonio, TX

Home | Current Version | Previous Version | Text Only | Print | Product List | Glossary On
Versions: 1 2 3 4 5 6 7 8 9 10 11 12 13 14 15 16 17 18 19 20 21 22
217
FTUS44 KEWX 291131
TAFSAT
TAF
KSAT 291131Z 2912/3018 VRB04KT P6SM SCT250
     FM291700 03010KT P6SM FEW250
     FM300500 01005KT P6SM SKC=

USA.gov is the U.S. government's official web portal to all federal, state and local government web resources and services.